sensor_id;sensor_type;location;lat;lon;timestamp;pressure;altitude;pressure_sealevel;temperature;humidity
54910;BME280;63189;51.240;9.964;2023-04-30T00:02:11;98401.16;;;6.83;100.00
54910;BME280;63189;51.240;9.964;2023-04-30T00:04:36;98403.75;;;6.85;100.00
54910;BME280;63189;51.240;9.964;2023-04-30T00:07:02;98409.78;;;6.84;100.00
54910;BME280;63189;51.240;9.964;2023-04-30T00:09:27;98408.06;;;6.84;100.00
54910;BME280;63189;51.240;9.964;2023-04-30T00:11:53;98414.13;;;6.82;100.00
54910;BME280;63189;51.240;9.964;2023-04-30T00:14:18;98410.72;;;6.80;100.00
54910;BME280;63189;51.240;9.964;2023-04-30T00:16:43;98414.19;;;6.79;100.00
54910;BME280;63189;51.240;9.964;2023-04-30T00:19:09;98418.47;;;6.77;100.00
54910;BME280;63189;51.240;9.964;2023-04-30T00:21:34;98420.25;;;6.72;100.00
54910;BME280;63189;51.240;9.964;2023-04-30T00:24:00;98422.00;;;6.70;100.00
54910;BME280;63189;51.240;9.964;2023-04-30T00:26:25;98421.19;;;6.63;100.00
54910;BME280;63189;51.240;9.964;2023-04-30T00:28:52;98412.63;;;6.52;100.00
54910;BME280;63189;51.240;9.964;2023-04-30T00:31:17;98427.34;;;6.48;100.00
54910;BME280;63189;51.240;9.964;2023-04-30T00:33:42;98413.56;;;6.46;100.00
54910;BME280;63189;51.240;9.964;2023-04-30T00:36:08;98421.31;;;6.43;100.00
54910;BME280;63189;51.240;9.964;2023-04-30T00:38:35;98424.81;;;6.39;100.00
54910;BME280;63189;51.240;9.964;2023-04-30T00:41:00;98412.75;;;6.33;100.00
54910;BME280;63189;51.240;9.964;2023-04-30T00:43:26;98430.88;;;6.35;100.00
54910;BME280;63189;51.240;9.964;2023-04-30T00:45:51;98426.53;;;6.35;100.00
54910;BME280;63189;51.240;9.964;2023-04-30T00:48:17;98430.03;;;6.33;100.00
54910;BME280;63189;51.240;9.964;2023-04-30T00:50:43;98423.97;;;6.34;100.00
54910;BME280;63189;51.240;9.964;2023-04-30T00:53:10;98432.59;;;6.33;100.00
54910;BME280;63189;51.240;9.964;2023-04-30T00:55:36;98430.88;;;6.32;100.00
54910;BME280;63189;51.240;9.964;2023-04-30T00:58:01;98433.47;;;6.32;100.00
54910;BME280;63189;51.240;9.964;2023-04-30T01:00:27;98430.06;;;6.28;100.00
54910;BME280;63189;51.240;9.964;2023-04-30T01:02:52;98433.53;;;6.27;100.00
54910;BME280;63189;51.240;9.964;2023-04-30T01:05:19;98433.50;;;6.24;100.00
54910;BME280;63189;51.240;9.964;2023-04-30T01:07:47;98442.16;;;6.23;100.00
54910;BME280;63189;51.240;9.964;2023-04-30T01:10:14;98441.31;;;6.20;100.00
54910;BME280;63189;51.240;9.964;2023-04-30T01:12:52;98450.84;;;6.16;100.00
54910;BME280;63189;51.240;9.964;2023-04-30T01:18:12;98439.66;;;6.10;100.00
54910;BME280;63189;51.240;9.964;2023-04-30T01:21:03;98450.00;;;6.10;100.00
54910;BME280;63189;51.240;9.964;2023-04-30T01:28:28;98450.00;;;6.03;100.00
54910;BME280;63189;51.240;9.964;2023-04-30T01:30:54;98454.34;;;6.01;100.00
54910;BME280;63189;51.240;9.964;2023-04-30T01:33:19;98462.09;;;6.01;100.00
54910;BME280;63189;51.240;9.964;2023-04-30T01:41:09;98450.06;;;5.91;100.00
54910;BME280;63189;51.240;9.964;2023-04-30T01:43:44;98446.59;;;5.89;100.00
54910;BME280;63189;51.240;9.964;2023-04-30T01:46:25;98456.97;;;5.89;100.00
54910;BME280;63189;51.240;9.964;2023-04-30T01:49:29;98458.69;;;5.87;100.00
54910;BME280;63189;51.240;9.964;2023-04-30T01:52:07;98460.44;;;5.85;100.00
54910;BME280;63189;51.240;9.964;2023-04-30T01:54:56;98470.78;;;5.85;100.00
54910;BME280;63189;51.240;9.964;2023-04-30T01:57:33;98460.41;;;5.82;100.00
54910;BME280;63189;51.240;9.964;2023-04-30T01:59:59;98464.75;;;5.80;100.00
54910;BME280;63189;51.240;9.964;2023-04-30T02:02:25;98473.38;;;5.79;100.00
54910;BME280;63189;51.240;9.964;2023-04-30T02:04:50;98471.66;;;5.76;100.00
54910;BME280;63189;51.240;9.964;2023-04-30T02:07:30;98466.50;;;5.75;100.00
54910;BME280;63189;51.240;9.964;2023-04-30T02:10:02;98462.19;;;5.71;100.00
54910;BME280;63189;51.240;9.964;2023-04-30T02:12:27;98461.31;;;5.70;100.00
54910;BME280;63189;51.240;9.964;2023-04-30T02:14:54;98467.38;;;5.68;100.00
54910;BME280;63189;51.240;9.964;2023-04-30T02:17:20;98469.09;;;5.67;100.00
54910;BME280;63189;51.240;9.964;2023-04-30T02:19:45;98473.44;;;5.65;100.00
54910;BME280;63189;51.240;9.964;2023-04-30T02:22:11;98470.84;;;5.64;100.00
54910;BME280;63189;51.240;9.964;2023-04-30T02:24:37;98466.53;;;5.58;100.00
54910;BME280;63189;51.240;9.964;2023-04-30T02:27:02;98466.53;;;5.60;100.00
54910;BME280;63189;51.240;9.964;2023-04-30T02:29:28;98470.00;;;5.57;100.00
54910;BME280;63189;51.240;9.964;2023-04-30T02:31:53;98474.31;;;5.57;100.00
54910;BME280;63189;51.240;9.964;2023-04-30T02:34:18;98471.72;;;5.58;100.00
54910;BME280;63189;51.240;9.964;2023-04-30T02:36:43;98463.13;;;5.53;100.00
54910;BME280;63189;51.240;9.964;2023-04-30T02:39:09;98465.69;;;5.51;100.00
54910;BME280;63189;51.240;9.964;2023-04-30T02:41:34;98467.41;;;5.48;100.00
54910;BME280;63189;51.240;9.964;2023-04-30T02:44:00;98472.59;;;5.48;100.00
54910;BME280;63189;51.240;9.964;2023-04-30T02:46:26;98470.88;;;5.45;100.00
54910;BME280;63189;51.240;9.964;2023-04-30T02:48:51;98466.59;;;5.43;100.00
54910;BME280;63189;51.240;9.964;2023-04-30T02:51:16;98468.28;;;5.41;100.00
54910;BME280;63189;51.240;9.964;2023-04-30T02:53:41;98466.56;;;5.40;100.00
54910;BME280;63189;51.240;9.964;2023-04-30T02:56:07;98480.38;;;5.37;100.00
54910;BME280;63189;51.240;9.964;2023-04-30T02:58:32;98476.06;;;5.36;100.00
54910;BME280;63189;51.240;9.964;2023-04-30T03:00:57;98470.06;;;5.33;100.00
54910;BME280;63189;51.240;9.964;2023-04-30T03:03:23;98476.91;;;5.31;100.00
54910;BME280;63189;51.240;9.964;2023-04-30T03:05:48;98478.66;;;5.26;100.00
54910;BME280;63189;51.240;9.964;2023-04-30T03:08:14;98470.91;;;5.24;100.00
54910;BME280;63189;51.240;9.964;2023-04-30T03:10:39;98482.13;;;5.21;100.00
54910;BME280;63189;51.240;9.964;2023-04-30T03:13:05;98477.78;;;5.19;100.00
54910;BME280;63189;51.240;9.964;2023-04-30T03:15:31;98470.94;;;5.13;100.00
54910;BME280;63189;51.240;9.964;2023-04-30T03:17:57;98476.06;;;5.09;100.00
54910;BME280;63189;51.240;9.964;2023-04-30T03:20:22;98484.72;;;5.11;100.00
54910;BME280;63189;51.240;9.964;2023-04-30T03:22:47;98477.78;;;5.10;100.00
54910;BME280;63189;51.240;9.964;2023-04-30T03:25:13;98477.81;;;5.04;100.00
54910;BME280;63189;51.240;9.964;2023-04-30T03:27:38;98492.47;;;5.05;100.00
54910;BME280;63189;51.240;9.964;2023-04-30T03:30:04;98484.72;;;5.02;100.00
54910;BME280;63189;51.240;9.964;2023-04-30T03:32:30;98492.47;;;5.02;100.00
54910;BME280;63189;51.240;9.964;2023-04-30T03:34:55;98483.84;;;4.97;100.00
54910;BME280;63189;51.240;9.964;2023-04-30T03:37:22;98485.56;;;4.96;100.00
54910;BME280;63189;51.240;9.964;2023-04-30T03:39:48;98491.59;;;4.95;100.00
54910;BME280;63189;51.240;9.964;2023-04-30T03:42:13;98486.41;;;4.97;100.00
54910;BME280;63189;51.240;9.964;2023-04-30T03:44:38;98488.16;;;4.95;100.00
54910;BME280;63189;51.240;9.964;2023-04-30T03:47:03;98495.03;;;4.94;100.00
54910;BME280;63189;51.240;9.964;2023-04-30T03:49:29;98490.75;;;4.93;100.00
54910;BME280;63189;51.240;9.964;2023-04-30T03:51:54;98484.72;;;4.91;100.00
54910;BME280;63189;51.240;9.964;2023-04-30T03:54:19;98497.63;;;4.91;100.00
54910;BME280;63189;51.240;9.964;2023-04-30T03:56:45;98498.50;;;4.91;100.00
54910;BME280;63189;51.240;9.964;2023-04-30T03:59:10;98501.94;;;4.90;100.00
54910;BME280;63189;51.240;9.964;2023-04-30T04:01:36;98500.19;;;4.88;100.00
54910;BME280;63189;51.240;9.964;2023-04-30T04:04:02;98503.63;;;4.85;100.00
54910;BME280;63189;51.240;9.964;2023-04-30T04:06:28;98497.63;;;4.83;100.00
54910;BME280;63189;51.240;9.964;2023-04-30T04:08:53;98505.38;;;4.83;100.00
54910;BME280;63189;51.240;9.964;2023-04-30T04:11:18;98505.38;;;4.83;100.00
54910;BME280;63189;51.240;9.964;2023-04-30T04:13:44;98495.91;;;4.81;100.00
54910;BME280;63189;51.240;9.964;2023-04-30T04:16:10;98501.94;;;4.81;100.00
54910;BME280;63189;51.240;9.964;2023-04-30T04:18:35;98499.34;;;4.80;100.00
54910;BME280;63189;51.240;9.964;2023-04-30T04:21:01;98509.69;;;4.80;100.00
54910;BME280;63189;51.240;9.964;2023-04-30T04:23:29;98517.41;;;4.78;100.00
54910;BME280;63189;51.240;9.964;2023-04-30T04:25:54;98514.81;;;4.77;100.00
54910;BME280;63189;51.240;9.964;2023-04-30T04:28:21;98521.72;;;4.76;100.00
54910;BME280;63189;51.240;9.964;2023-04-30T04:30:46;98509.66;;;4.77;100.00
54910;BME280;63189;51.240;9.964;2023-04-30T04:33:13;98518.25;;;4.76;100.00
54910;BME280;63189;51.240;9.964;2023-04-30T04:35:38;98520.00;;;4.75;100.00
54910;BME280;63189;51.240;9.964;2023-04-30T04:38:04;98525.16;;;4.75;100.00
54910;BME280;63189;51.240;9.964;2023-04-30T04:40:29;98526.88;;;4.75;100.00
54910;BME280;63189;51.240;9.964;2023-04-30T04:42:55;98531.19;;;4.77;100.00
54910;BME280;63189;51.240;9.964;2023-04-30T04:45:20;98526.88;;;4.78;100.00
54910;BME280;63189;51.240;9.964;2023-04-30T04:47:45;98533.75;;;4.76;100.00
54910;BME280;63189;51.240;9.964;2023-04-30T04:50:11;98534.63;;;4.78;100.00
54910;BME280;63189;51.240;9.964;2023-04-30T04:52:37;98533.75;;;4.77;100.00
54910;BME280;63189;51.240;9.964;2023-04-30T04:55:03;98533.75;;;4.79;100.00
54910;BME280;63189;51.240;9.964;2023-04-30T04:57:29;98524.28;;;4.78;100.00
54910;BME280;63189;51.240;9.964;2023-04-30T04:59:54;98534.66;;;4.82;100.00
54910;BME280;63189;51.240;9.964;2023-04-30T05:02:19;98529.47;;;4.84;100.00
54910;BME280;63189;51.240;9.964;2023-04-30T05:04:47;98538.94;;;4.86;100.00
54910;BME280;63189;51.240;9.964;2023-04-30T05:07:15;98538.09;;;4.87;100.00
54910;BME280;63189;51.240;9.964;2023-04-30T05:09:40;98537.25;;;4.90;100.00
54910;BME280;63189;51.240;9.964;2023-04-30T05:12:06;98536.34;;;4.89;100.00
54910;BME280;63189;51.240;9.964;2023-04-30T05:14:31;98539.84;;;4.91;100.00
54910;BME280;63189;51.240;9.964;2023-04-30T05:16:56;98549.31;;;4.94;100.00
54910;BME280;63189;51.240;9.964;2023-04-30T05:19:22;98534.66;;;4.96;100.00
54910;BME280;63189;51.240;9.964;2023-04-30T05:21:47;98542.41;;;5.05;100.00
54910;BME280;63189;51.240;9.964;2023-04-30T05:24:12;98539.84;;;5.17;100.00
54910;BME280;63189;51.240;9.964;2023-04-30T05:26:38;98540.72;;;5.24;100.00
54910;BME280;63189;51.240;9.964;2023-04-30T05:29:03;98538.97;;;5.28;100.00
54910;BME280;63189;51.240;9.964;2023-04-30T05:31:28;98546.72;;;5.40;100.00
54910;BME280;63189;51.240;9.964;2023-04-30T05:33:53;98539.81;;;5.62;100.00
54910;BME280;63189;51.240;9.964;2023-04-30T05:36:19;98542.38;;;5.86;100.00
54910;BME280;63189;51.240;9.964;2023-04-30T05:38:44;98550.94;;;6.20;100.00
54910;BME280;63189;51.240;9.964;2023-04-30T05:41:11;98558.50;;;6.64;100.00
54910;BME280;63189;51.240;9.964;2023-04-30T05:43:36;98557.53;;;6.84;100.00
54910;BME280;63189;51.240;9.964;2023-04-30T05:46:02;98551.38;;;6.97;100.00
54910;BME280;63189;51.240;9.964;2023-04-30T05:48:28;98561.63;;;7.20;100.00
54910;BME280;63189;51.240;9.964;2023-04-30T05:50:53;98556.28;;;7.37;100.00
54910;BME280;63189;51.240;9.964;2023-04-30T05:53:18;98556.09;;;7.60;100.00
54910;BME280;63189;51.240;9.964;2023-04-30T05:55:44;98556.75;;;7.83;99.46
54910;BME280;63189;51.240;9.964;2023-04-30T05:58:09;98553.09;;;8.01;97.53
54910;BME280;63189;51.240;9.964;2023-04-30T06:00:35;98561.50;;;8.26;96.87
54910;BME280;63189;51.240;9.964;2023-04-30T06:03:01;98553.56;;;8.39;94.16
54910;BME280;63189;51.240;9.964;2023-04-30T06:05:27;98553.13;;;8.73;93.82
54910;BME280;63189;51.240;9.964;2023-04-30T06:07:52;98554.47;;;9.02;93.01
54910;BME280;63189;51.240;9.964;2023-04-30T06:10:17;98560.25;;;9.20;90.96
54910;BME280;63189;51.240;9.964;2023-04-30T06:12:42;98566.31;;;9.21;90.69
54910;BME280;63189;51.240;9.964;2023-04-30T06:15:08;98560.75;;;9.42;89.56
54910;BME280;63189;51.240;9.964;2023-04-30T06:17:33;98565.59;;;9.65;88.37
54910;BME280;63189;51.240;9.964;2023-04-30T06:19:59;98550.50;;;9.84;88.35
54910;BME280;63189;51.240;9.964;2023-04-30T06:22:29;98564.03;;;10.04;86.67
54910;BME280;63189;51.240;9.964;2023-04-30T06:24:54;98561.81;;;10.31;84.43
54910;BME280;63189;51.240;9.964;2023-04-30T06:27:21;98562.25;;;10.53;83.15
54910;BME280;63189;51.240;9.964;2023-04-30T06:29:47;98559.03;;;10.80;82.83
54910;BME280;63189;51.240;9.964;2023-04-30T06:32:12;98556.28;;;10.88;82.00
54910;BME280;63189;51.240;9.964;2023-04-30T06:34:38;98561.28;;;10.97;80.95
54910;BME280;63189;51.240;9.964;2023-04-30T06:37:03;98555.72;;;11.12;80.09
54910;BME280;63189;51.240;9.964;2023-04-30T06:39:31;98550.00;;;11.34;79.17
54910;BME280;63189;51.240;9.964;2023-04-30T06:41:56;98549.56;;;11.52;77.00
54910;BME280;63189;51.240;9.964;2023-04-30T06:44:21;98548.34;;;11.65;78.50
54910;BME280;63189;51.240;9.964;2023-04-30T06:46:48;98551.53;;;11.76;75.43
54910;BME280;63189;51.240;9.964;2023-04-30T06:49:13;98558.13;;;11.93;74.00
54910;BME280;63189;51.240;9.964;2023-04-30T06:51:40;98561.13;;;12.11;72.40
54910;BME280;63189;51.240;9.964;2023-04-30T06:54:05;98558.25;;;12.19;69.95
54910;BME280;63189;51.240;9.964;2023-04-30T06:56:31;98562.34;;;12.29;71.19
54910;BME280;63189;51.240;9.964;2023-04-30T06:58:56;98563.34;;;12.25;70.74
54910;BME280;63189;51.240;9.964;2023-04-30T07:01:22;98572.41;;;12.45;70.02
54910;BME280;63189;51.240;9.964;2023-04-30T07:03:47;98569.28;;;12.32;67.39
54910;BME280;63189;51.240;9.964;2023-04-30T07:06:12;98558.66;;;12.36;70.05
54910;BME280;63189;51.240;9.964;2023-04-30T07:08:38;98568.13;;;12.42;70.59
54910;BME280;63189;51.240;9.964;2023-04-30T07:11:05;98561.88;;;12.46;69.38
54910;BME280;63189;51.240;9.964;2023-04-30T07:13:30;98564.19;;;12.57;71.43
54910;BME280;63189;51.240;9.964;2023-04-30T07:15:55;98569.91;;;12.69;69.50
54910;BME280;63189;51.240;9.964;2023-04-30T07:18:21;98563.19;;;12.90;69.67
54910;BME280;63189;51.240;9.964;2023-04-30T07:20:46;98561.22;;;12.98;68.56
54910;BME280;63189;51.240;9.964;2023-04-30T07:23:11;98568.94;;;13.03;64.46
54910;BME280;63189;51.240;9.964;2023-04-30T07:25:37;98561.69;;;13.11;64.86
54910;BME280;63189;51.240;9.964;2023-04-30T07:28:02;98567.72;;;13.15;64.44
54910;BME280;63189;51.240;9.964;2023-04-30T07:30:27;98558.53;;;13.29;66.40
54910;BME280;63189;51.240;9.964;2023-04-30T07:32:53;98551.53;;;13.30;66.23
54910;BME280;63189;51.240;9.964;2023-04-30T07:35:18;98548.72;;;13.36;65.75
54910;BME280;63189;51.240;9.964;2023-04-30T07:37:43;98551.91;;;13.46;64.03
54910;BME280;63189;51.240;9.964;2023-04-30T07:40:09;98552.72;;;13.48;64.38
54910;BME280;63189;51.240;9.964;2023-04-30T07:42:39;98543.88;;;13.50;65.03
54910;BME280;63189;51.240;9.964;2023-04-30T07:45:06;98554.06;;;13.60;61.87
54910;BME280;63189;51.240;9.964;2023-04-30T07:47:31;98546.50;;;13.77;65.04
54910;BME280;63189;51.240;9.964;2023-04-30T07:49:57;98549.16;;;13.75;62.46
54910;BME280;63189;51.240;9.964;2023-04-30T07:52:22;98536.88;;;13.77;64.06
54910;BME280;63189;51.240;9.964;2023-04-30T07:54:47;98550.91;;;14.01;63.83
54910;BME280;63189;51.240;9.964;2023-04-30T07:57:15;98541.41;;;14.22;62.38
54910;BME280;63189;51.240;9.964;2023-04-30T07:59:46;98541.84;;;14.35;61.19
54910;BME280;63189;51.240;9.964;2023-04-30T08:02:12;98544.75;;;14.52;59.88
54910;BME280;63189;51.240;9.964;2023-04-30T08:04:37;98547.13;;;14.58;59.09
54910;BME280;63189;51.240;9.964;2023-04-30T08:07:02;98548.94;;;14.80;58.59
54910;BME280;63189;51.240;9.964;2023-04-30T08:09:29;98555.72;;;14.85;59.43
54910;BME280;63189;51.240;9.964;2023-04-30T08:11:54;98557.72;;;15.02;58.01
54910;BME280;63189;51.240;9.964;2023-04-30T08:14:19;98547.09;;;15.05;59.33
54910;BME280;63189;51.240;9.964;2023-04-30T08:16:45;98544.78;;;15.19;60.27
54910;BME280;63189;51.240;9.964;2023-04-30T08:19:11;98550.16;;;15.38;58.11
54910;BME280;63189;51.240;9.964;2023-04-30T08:21:36;98551.69;;;15.22;50.58
54910;BME280;63189;51.240;9.964;2023-04-30T08:24:02;98540.94;;;15.28;54.54
54910;BME280;63189;51.240;9.964;2023-04-30T08:26:28;98546.06;;;15.53;54.60
54910;BME280;63189;51.240;9.964;2023-04-30T08:28:53;98549.13;;;15.64;54.56
54910;BME280;63189;51.240;9.964;2023-04-30T08:31:21;98544.22;;;15.77;54.62
54910;BME280;63189;51.240;9.964;2023-04-30T08:33:47;98546.38;;;15.67;54.04
54910;BME280;63189;51.240;9.964;2023-04-30T08:36:12;98545.44;;;15.68;52.78
54910;BME280;63189;51.240;9.964;2023-04-30T08:38:37;98534.81;;;15.49;48.87
54910;BME280;63189;51.240;9.964;2023-04-30T08:41:12;98539.63;;;15.38;49.28
54910;BME280;63189;51.240;9.964;2023-04-30T08:43:47;98540.31;;;15.43;54.03
54910;BME280;63189;51.240;9.964;2023-04-30T08:46:13;98533.03;;;15.50;54.23
54910;BME280;63189;51.240;9.964;2023-04-30T08:48:40;98537.19;;;15.55;51.91
54910;BME280;63189;51.240;9.964;2023-04-30T08:51:05;98542.97;;;15.65;54.22
54910;BME280;63189;51.240;9.964;2023-04-30T08:53:34;98538.63;;;15.64;54.06
54910;BME280;63189;51.240;9.964;2023-04-30T08:56:00;98537.44;;;15.71;55.72
54910;BME280;63189;51.240;9.964;2023-04-30T08:58:25;98540.47;;;15.82;52.17
54910;BME280;63189;51.240;9.964;2023-04-30T09:00:53;98540.22;;;15.88;51.41
54910;BME280;63189;51.240;9.964;2023-04-30T09:03:21;98539.28;;;16.10;50.15
54910;BME280;63189;51.240;9.964;2023-04-30T09:05:47;98541.13;;;16.28;51.93
54910;BME280;63189;51.240;9.964;2023-04-30T09:08:17;98536.91;;;16.24;51.40
54910;BME280;63189;51.240;9.964;2023-04-30T09:10:43;98537.63;;;16.28;48.62
54910;BME280;63189;51.240;9.964;2023-04-30T09:13:09;98540.59;;;16.20;49.61
54910;BME280;63189;51.240;9.964;2023-04-30T09:15:36;98544.22;;;16.17;49.65
54910;BME280;63189;51.240;9.964;2023-04-30T09:18:16;98541.38;;;16.22;49.39
54910;BME280;63189;51.240;9.964;2023-04-30T09:21:01;98539.13;;;16.33;49.86
54910;BME280;63189;51.240;9.964;2023-04-30T09:23:29;98543.88;;;16.25;51.31
54910;BME280;63189;51.240;9.964;2023-04-30T09:25:55;98540.91;;;16.33;51.23
54910;BME280;63189;51.240;9.964;2023-04-30T09:28:25;98535.97;;;16.25;48.73
54910;BME280;63189;51.240;9.964;2023-04-30T09:30:55;98537.28;;;16.35;53.75
54910;BME280;63189;51.240;9.964;2023-04-30T09:33:21;98534.53;;;16.38;50.75
54910;BME280;63189;51.240;9.964;2023-04-30T09:35:46;98534.63;;;16.35;49.91
54910;BME280;63189;51.240;9.964;2023-04-30T09:38:31;98535.84;;;16.28;52.94
54910;BME280;63189;51.240;9.964;2023-04-30T09:41:00;98535.06;;;16.26;48.96
54910;BME280;63189;51.240;9.964;2023-04-30T09:43:29;98542.63;;;16.13;50.36
54910;BME280;63189;51.240;9.964;2023-04-30T09:45:57;98536.50;;;16.33;52.13
54910;BME280;63189;51.240;9.964;2023-04-30T09:48:24;98533.03;;;16.52;50.25
54910;BME280;63189;51.240;9.964;2023-04-30T09:50:50;98529.53;;;16.71;52.84
54910;BME280;63189;51.240;9.964;2023-04-30T09:53:16;98522.34;;;16.75;50.30
54910;BME280;63189;51.240;9.964;2023-04-30T09:55:47;98520.06;;;16.86;50.84
54910;BME280;63189;51.240;9.964;2023-04-30T09:58:15;98522.34;;;16.94;47.62
54910;BME280;63189;51.240;9.964;2023-04-30T10:00:41;98519.63;;;16.95;54.15
54910;BME280;63189;51.240;9.964;2023-04-30T10:03:08;98509.09;;;16.77;48.99
54910;BME280;63189;51.240;9.964;2023-04-30T10:05:55;98513.75;;;16.90;50.38
54910;BME280;63189;51.240;9.964;2023-04-30T10:08:27;98514.50;;;16.92;49.55
54910;BME280;63189;51.240;9.964;2023-04-30T10:10:58;98508.16;;;17.15;51.82
54910;BME280;63189;51.240;9.964;2023-04-30T10:13:28;98504.84;;;16.93;47.42
54910;BME280;63189;51.240;9.964;2023-04-30T10:15:58;98500.00;;;16.84;48.34
54910;BME280;63189;51.240;9.964;2023-04-30T10:18:28;98492.66;;;16.90;49.74
54910;BME280;63189;51.240;9.964;2023-04-30T10:20:55;98489.72;;;16.96;49.18
54910;BME280;63189;51.240;9.964;2023-04-30T10:23:23;98485.03;;;17.03;51.49
54910;BME280;63189;51.240;9.964;2023-04-30T10:25:50;98489.53;;;17.18;53.09
54910;BME280;63189;51.240;9.964;2023-04-30T10:28:15;98486.72;;;17.40;54.40
54910;BME280;63189;51.240;9.964;2023-04-30T10:30:41;98488.72;;;17.35;48.28
54910;BME280;63189;51.240;9.964;2023-04-30T10:33:29;98482.19;;;17.25;53.96
54910;BME280;63189;51.240;9.964;2023-04-30T10:35:59;98484.78;;;17.08;46.03
54910;BME280;63189;51.240;9.964;2023-04-30T10:38:27;98475.75;;;17.13;49.43
54910;BME280;63189;51.240;9.964;2023-04-30T10:40:58;98488.88;;;17.32;51.24
54910;BME280;63189;51.240;9.964;2023-04-30T10:43:26;98481.44;;;17.23;48.17
54910;BME280;63189;51.240;9.964;2023-04-30T10:45:56;98477.16;;;17.20;47.78
54910;BME280;63189;51.240;9.964;2023-04-30T10:48:22;98476.59;;;17.14;48.86
54910;BME280;63189;51.240;9.964;2023-04-30T10:50:58;98482.13;;;17.09;47.64
54910;BME280;63189;51.240;9.964;2023-04-30T10:53:38;98475.59;;;17.16;52.55
54910;BME280;63189;51.240;9.964;2023-04-30T10:58:46;98470.34;;;16.97;50.11
54910;BME280;63189;51.240;9.964;2023-04-30T11:01:15;98465.94;;;16.98;47.94
54910;BME280;63189;51.240;9.964;2023-04-30T11:04:02;98466.78;;;16.98;52.71
54910;BME280;63189;51.240;9.964;2023-04-30T11:06:48;98460.63;;;17.17;50.34
54910;BME280;63189;51.240;9.964;2023-04-30T11:09:14;98463.16;;;17.20;50.41
54910;BME280;63189;51.240;9.964;2023-04-30T11:11:39;98453.66;;;17.16;49.33
54910;BME280;63189;51.240;9.964;2023-04-30T11:14:05;98449.41;;;17.13;48.87
54910;BME280;63189;51.240;9.964;2023-04-30T11:16:33;98453.22;;;17.25;50.80
54910;BME280;63189;51.240;9.964;2023-04-30T11:19:25;98450.81;;;17.38;48.39
54910;BME280;63189;51.240;9.964;2023-04-30T11:24:51;98451.44;;;17.43;46.90
54910;BME280;63189;51.240;9.964;2023-04-30T11:27:25;98448.72;;;17.27;48.82
54910;BME280;63189;51.240;9.964;2023-04-30T11:29:51;98450.03;;;17.36;51.29
54910;BME280;63189;51.240;9.964;2023-04-30T11:32:18;98452.38;;;17.42;50.40
54910;BME280;63189;51.240;9.964;2023-04-30T11:34:43;98447.03;;;17.43;49.38
54910;BME280;63189;51.240;9.964;2023-04-30T11:37:12;98438.75;;;17.51;48.87
54910;BME280;63189;51.240;9.964;2023-04-30T11:39:41;98444.22;;;17.46;47.17
54910;BME280;63189;51.240;9.964;2023-04-30T11:42:07;98446.25;;;17.41;48.10
54910;BME280;63189;51.240;9.964;2023-04-30T11:44:33;98451.34;;;17.27;48.56
54910;BME280;63189;51.240;9.964;2023-04-30T11:46:59;98435.69;;;17.24;50.31
54910;BME280;63189;51.240;9.964;2023-04-30T11:49:25;98429.66;;;17.22;48.55
54910;BME280;63189;51.240;9.964;2023-04-30T11:51:54;98433.63;;;17.30;53.50
54910;BME280;63189;51.240;9.964;2023-04-30T11:54:19;98436.31;;;17.46;51.19
54910;BME280;63189;51.240;9.964;2023-04-30T11:56:47;98426.09;;;17.57;51.46
54910;BME280;63189;51.240;9.964;2023-04-30T11:59:13;98422.97;;;17.67;48.85
54910;BME280;63189;51.240;9.964;2023-04-30T12:01:39;98430.03;;;17.49;48.14
54910;BME280;63189;51.240;9.964;2023-04-30T12:04:05;98414.00;;;17.36;46.87
54910;BME280;63189;51.240;9.964;2023-04-30T12:06:34;98412.47;;;17.32;48.68
54910;BME280;63189;51.240;9.964;2023-04-30T12:09:01;98418.97;;;17.25;51.65
54910;BME280;63189;51.240;9.964;2023-04-30T12:11:33;98419.25;;;17.36;51.09
54910;BME280;63189;51.240;9.964;2023-04-30T12:14:08;98412.75;;;17.26;47.70
54910;BME280;63189;51.240;9.964;2023-04-30T12:19:13;98413.22;;;17.17;50.70
54910;BME280;63189;51.240;9.964;2023-04-30T12:21:41;98406.47;;;17.28;49.43
54910;BME280;63189;51.240;9.964;2023-04-30T12:24:10;98408.88;;;17.16;49.31
54910;BME280;63189;51.240;9.964;2023-04-30T12:26:40;98403.13;;;17.08;49.90
54910;BME280;63189;51.240;9.964;2023-04-30T12:29:17;98414.50;;;16.91;51.72
54910;BME280;63189;51.240;9.964;2023-04-30T12:31:44;98404.63;;;16.77;48.71
54910;BME280;63189;51.240;9.964;2023-04-30T12:34:11;98410.72;;;16.78;49.77
54910;BME280;63189;51.240;9.964;2023-04-30T12:36:39;98403.91;;;16.73;47.39
54910;BME280;63189;51.240;9.964;2023-04-30T12:39:08;98404.34;;;16.83;48.62
54910;BME280;63189;51.240;9.964;2023-04-30T12:41:44;98396.75;;;16.94;50.38
54910;BME280;63189;51.240;9.964;2023-04-30T12:46:39;98402.44;;;17.04;49.97
54910;BME280;63189;51.240;9.964;2023-04-30T12:49:05;98389.34;;;17.02;49.69
54910;BME280;63189;51.240;9.964;2023-04-30T12:51:33;98396.91;;;17.09;50.91
54910;BME280;63189;51.240;9.964;2023-04-30T12:53:59;98393.75;;;17.02;47.86
54910;BME280;63189;51.240;9.964;2023-04-30T12:56:25;98395.66;;;16.98;51.54
54910;BME280;63189;51.240;9.964;2023-04-30T12:58:52;98383.09;;;16.86;49.53
54910;BME280;63189;51.240;9.964;2023-04-30T13:01:21;98388.97;;;16.74;49.73
54910;BME280;63189;51.240;9.964;2023-04-30T13:03:50;98385.91;;;16.64;49.85
54910;BME280;63189;51.240;9.964;2023-04-30T13:06:15;98376.91;;;16.70;51.84
54910;BME280;63189;51.240;9.964;2023-04-30T13:08:41;98370.63;;;16.54;47.81
54910;BME280;63189;51.240;9.964;2023-04-30T13:11:07;98373.41;;;16.51;48.37
54910;BME280;63189;51.240;9.964;2023-04-30T13:13:32;98375.25;;;16.49;47.84
54910;BME280;63189;51.240;9.964;2023-04-30T13:15:59;98377.47;;;16.58;47.43
54910;BME280;63189;51.240;9.964;2023-04-30T13:18:24;98371.63;;;16.70;48.33
54910;BME280;63189;51.240;9.964;2023-04-30T13:20:50;98364.22;;;16.78;47.26
54910;BME280;63189;51.240;9.964;2023-04-30T13:23:18;98366.47;;;16.67;46.56
54910;BME280;63189;51.240;9.964;2023-04-30T13:25:43;98356.59;;;16.72;47.21